Time;durP1;ratioP1;P1;durP2;ratioP2;P2;SDS_P1;SDS_P2;PMS_P1;PMS_P2;Temp;Humidity;BMP_temperature;BMP_pressure;BME280_temperature;BME280_humidity;BME280_pressure;Samples;Min_cycle;Max_cycle;Signal;HPM_P1;HPM_P2
2023/05/18 00:02:17;;;;;;;14.20;5.10;;;13.00;99.90;;;;;;5092335;28;20243;-57
2023/05/18 00:04:43;;;;;;;13.43;5.15;;;13.00;99.90;;;;;;5092087;28;20265;-57
2023/05/18 00:07:09;;;;;;;18.25;5.13;;;13.00;99.90;;;;;;5092099;28;20195;-58
2023/05/18 00:09:35;;;;;;;9.57;4.30;;;13.00;99.90;;;;;;5091179;28;20195;-57
2023/05/18 00:12:03;;;;;;;18.10;4.90;;;13.00;99.90;;;;;;5075426;28;20173;-58
2023/05/18 00:14:29;;;;;;;13.75;5.07;;;13.00;99.90;;;;;;5071860;28;20262;-57
2023/05/18 00:16:56;;;;;;;19.65;5.32;;;13.00;99.90;;;;;;5092116;28;20176;-59
2023/05/18 00:19:23;;;;;;;15.75;5.00;;;13.00;99.90;;;;;;5091918;28;20546;-59
2023/05/18 00:21:50;;;;;;;17.88;5.72;;;13.10;99.90;;;;;;5092079;28;20532;-58
2023/05/18 00:24:17;;;;;;;15.23;5.15;;;13.00;99.90;;;;;;5073526;28;20169;-58
2023/05/18 00:26:44;;;;;;;19.65;5.47;;;13.00;99.90;;;;;;5091960;28;20237;-58
2023/05/18 00:29:10;;;;;;;13.57;4.97;;;13.00;99.90;;;;;;5091739;28;20175;-58
2023/05/18 00:31:37;;;;;;;19.17;5.18;;;13.00;99.90;;;;;;5091787;28;20172;-58
2023/05/18 00:34:07;;;;;;;13.10;4.80;;;13.00;99.90;;;;;;5091626;28;20200;-60
2023/05/18 00:36:34;;;;;;;12.25;5.10;;;12.90;99.90;;;;;;5091460;28;20256;-58
2023/05/18 00:39:01;;;;;;;19.60;5.75;;;14.70;99.90;;;;;;5073232;28;20183;-58
2023/05/18 00:41:27;;;;;;;11.05;4.80;;;12.90;99.90;;;;;;5091465;28;20261;-58
2023/05/18 00:43:53;;;;;;;19.00;5.85;;;12.90;99.90;;;;;;5091454;28;20172;-58
2023/05/18 00:46:19;;;;;;;13.55;5.60;;;12.80;99.90;;;;;;5091496;28;20195;-58
2023/05/18 00:48:45;;;;;;;12.32;5.13;;;12.70;99.90;;;;;;5091563;28;20632;-58
2023/05/18 00:51:11;;;;;;;13.88;5.15;;;12.70;99.90;;;;;;5091238;28;20243;-59
2023/05/18 00:53:37;;;;;;;17.60;5.38;;;12.80;99.90;;;;;;5091143;28;20295;-58
2023/05/18 00:56:03;;;;;;;16.17;6.05;;;12.80;99.90;;;;;;5091495;28;20651;-58
2023/05/18 00:58:30;;;;;;;15.15;5.10;;;12.70;99.90;;;;;;5089550;28;20180;-58
2023/05/18 01:00:56;;;;;;;17.75;5.57;;;12.70;99.90;;;;;;5073858;28;20536;-58
2023/05/18 01:03:22;;;;;;;15.90;5.18;;;12.70;99.90;;;;;;5084157;28;20259;-58
2023/05/18 01:05:56;;;;;;;14.80;5.70;;;12.60;99.90;;;;;;5071393;28;20263;-58
2023/05/18 01:08:26;;;;;;;14.43;5.25;;;12.70;99.90;;;;;;5074656;28;20178;-58
2023/05/18 01:11:21;;;;;;;12.40;5.20;;;12.70;99.90;;;;;;5079976;28;20183;-58
2023/05/18 01:14:02;;;;;;;17.90;5.25;;;12.70;99.90;;;;;;5086363;28;20294;-58
2023/05/18 01:16:36;;;;;;;13.98;5.70;;;12.70;99.90;;;;;;5070755;28;20330;-58
2023/05/18 01:19:20;;;;;;;14.52;5.50;;;12.70;99.90;;;;;;5080259;28;20172;-58
2023/05/18 01:22:07;;;;;;;18.67;5.57;;;12.70;99.90;;;;;;5090732;28;20199;-58
2023/05/18 01:24:47;;;;;;;18.00;6.18;;;12.70;99.90;;;;;;5091012;28;20175;-60
2023/05/18 01:27:16;;;;;;;18.15;5.57;;;12.70;99.90;;;;;;5090906;28;20172;-59
2023/05/18 01:29:44;;;;;;;18.98;5.60;;;12.70;99.90;;;;;;5089757;28;20180;-59
2023/05/18 01:32:20;;;;;;;17.98;5.57;;;12.70;99.90;;;;;;5090835;28;20167;-59
2023/05/18 01:34:47;;;;;;;16.97;5.80;;;12.70;99.90;;;;;;5090911;28;20179;-59
2023/05/18 01:37:13;;;;;;;14.02;4.68;;;12.70;99.90;;;;;;5090808;28;20224;-59
2023/05/18 01:39:39;;;;;;;14.73;5.40;;;12.70;99.90;;;;;;5090900;28;20183;-59
2023/05/18 01:42:20;;;;;;;13.98;4.80;;;12.70;99.90;;;;;;5090921;28;20164;-58
2023/05/18 01:44:54;;;;;;;16.38;5.47;;;12.70;99.90;;;;;;5090933;28;20179;-59
2023/05/18 01:47:20;;;;;;;15.38;5.15;;;12.70;99.90;;;;;;5090901;28;20524;-59
2023/05/18 01:50:04;;;;;;;20.83;5.68;;;12.60;99.90;;;;;;5090896;28;20183;-59
2023/05/18 01:52:45;;;;;;;15.63;6.03;;;12.60;99.90;;;;;;5090883;28;20164;-59
2023/05/18 01:55:13;;;;;;;13.82;6.00;;;12.60;99.90;;;;;;5090840;28;20176;-59
2023/05/18 01:57:41;;;;;;;17.73;6.55;;;12.60;99.90;;;;;;5090785;28;20182;-59
2023/05/18 02:00:09;;;;;;;16.57;6.10;;;12.60;99.90;;;;;;5090608;28;20640;-59
2023/05/18 02:02:35;;;;;;;15.35;6.10;;;12.60;99.90;;;;;;5090961;28;20237;-59
2023/05/18 02:05:01;;;;;;;12.98;6.15;;;12.70;99.90;;;;;;5088489;28;20180;-58
2023/05/18 02:07:26;;;;;;;15.60;6.25;;;12.60;99.90;;;;;;5090517;28;20188;-58
2023/05/18 02:09:52;;;;;;;14.87;5.60;;;12.60;99.90;;;;;;5090431;28;20204;-58
2023/05/18 02:12:18;;;;;;;16.85;5.90;;;12.60;99.90;;;;;;5090492;28;20168;-58
2023/05/18 02:14:43;;;;;;;17.60;5.20;;;12.60;99.90;;;;;;5088786;28;20216;-58
2023/05/18 02:17:09;;;;;;;18.08;5.82;;;12.60;99.90;;;;;;5072895;28;20581;-58
2023/05/18 02:19:38;;;;;;;11.90;5.83;;;12.60;99.90;;;;;;5070405;28;20208;-57
2023/05/18 02:22:05;;;;;;;19.35;5.88;;;12.60;99.90;;;;;;5088737;28;20191;-57
2023/05/18 02:24:34;;;;;;;17.40;5.85;;;12.70;99.90;;;;;;5090525;28;20217;-59
2023/05/18 02:27:00;;;;;;;10.63;5.60;;;12.60;99.90;;;;;;5077442;28;20172;-59
2023/05/18 02:29:26;;;;;;;14.35;5.60;;;12.70;99.90;;;;;;5090386;28;20237;-57
2023/05/18 02:31:52;;;;;;;16.75;5.60;;;12.70;99.90;;;;;;5090396;28;20616;-58
2023/05/18 02:34:18;;;;;;;15.07;5.72;;;;;;;;;;5093266;28;20215;-58
2023/05/18 02:36:44;;;;;;;16.85;5.68;;;12.70;99.90;;;;;;5093941;28;20259;-58
2023/05/18 02:39:11;;;;;;;14.55;5.65;;;12.70;99.90;;;;;;5094117;28;20566;-58
2023/05/18 02:41:37;;;;;;;18.33;6.25;;;12.60;99.90;;;;;;5089534;28;20183;-58
2023/05/18 02:44:03;;;;;;;16.23;6.10;;;12.50;99.90;;;;;;5081448;28;20187;-58
2023/05/18 02:46:30;;;;;;;13.70;6.70;;;12.40;99.90;;;;;;5075759;28;20176;-58
2023/05/18 02:48:56;;;;;;;15.15;7.03;;;12.30;99.90;;;;;;5093695;28;20385;-58
2023/05/18 02:51:22;;;;;;;18.35;6.78;;;12.30;99.90;;;;;;5093685;28;20237;-58
2023/05/18 02:53:49;;;;;;;15.80;6.13;;;12.30;99.90;;;;;;5093528;28;20676;-58
2023/05/18 02:56:16;;;;;;;17.88;6.25;;;12.40;99.90;;;;;;5079493;28;20293;-58
2023/05/18 02:58:42;;;;;;;20.00;7.07;;;12.40;99.90;;;;;;5055300;28;20177;-58
2023/05/18 03:01:10;;;;;;;13.50;6.47;;;12.40;99.90;;;;;;5073143;28;20260;-57
2023/05/18 03:03:37;;;;;;;17.50;6.60;;;12.40;99.90;;;;;;5073710;28;20185;-59
2023/05/18 03:06:03;;;;;;;14.20;6.70;;;12.40;99.90;;;;;;5073579;28;20660;-59
2023/05/18 03:08:30;;;;;;;17.90;7.00;;;12.40;99.90;;;;;;5077867;28;20176;-59
2023/05/18 03:10:56;;;;;;;12.35;5.88;;;12.60;99.90;;;;;;5093237;28;20179;-60
2023/05/18 03:13:22;;;;;;;17.25;5.43;;;12.40;99.90;;;;;;5074717;28;20677;-59
2023/05/18 03:15:49;;;;;;;14.77;6.40;;;12.50;99.90;;;;;;5084772;28;20180;-59
2023/05/18 03:18:15;;;;;;;15.30;5.90;;;12.40;99.90;;;;;;5093250;28;20210;-60
2023/05/18 03:20:42;;;;;;;11.23;5.82;;;12.40;99.90;;;;;;5091726;28;20636;-58
2023/05/18 03:23:07;;;;;;;14.53;6.10;;;12.40;99.90;;;;;;5093262;28;20175;-58
2023/05/18 03:25:36;;;;;;;13.35;6.22;;;12.50;99.90;;;;;;5092858;28;20175;-58
2023/05/18 03:28:05;;;;;;;11.90;6.20;;;12.40;99.90;;;;;;5093194;28;20194;-58
2023/05/18 03:30:32;;;;;;;12.50;6.45;;;12.50;99.90;;;;;;5087562;28;20176;-57
2023/05/18 03:32:58;;;;;;;17.15;6.85;;;12.50;99.90;;;;;;5085717;28;20206;-58
2023/05/18 03:35:24;;;;;;;13.48;6.25;;;12.40;99.90;;;;;;5085358;28;20196;-57
2023/05/18 03:37:51;;;;;;;15.47;6.37;;;12.40;99.90;;;;;;5072628;28;20206;-57
2023/05/18 03:40:18;;;;;;;13.50;6.07;;;12.50;99.90;;;;;;5072625;28;20184;-58
2023/05/18 03:42:43;;;;;;;17.92;6.32;;;12.40;99.90;;;;;;5072721;28;20176;-58
2023/05/18 03:45:10;;;;;;;13.85;6.50;;;12.30;99.90;;;;;;5072624;28;20192;-58
2023/05/18 03:47:36;;;;;;;14.13;5.82;;;12.30;99.90;;;;;;5072554;28;20204;-59
2023/05/18 03:50:03;;;;;;;15.98;6.20;;;12.30;99.90;;;;;;5072353;28;20198;-57
2023/05/18 03:52:28;;;;;;;11.73;6.32;;;12.30;99.90;;;;;;5091212;28;20172;-60
2023/05/18 03:54:55;;;;;;;16.63;6.55;;;12.30;99.90;;;;;;5092647;28;20259;-57
2023/05/18 03:57:21;;;;;;;13.60;6.67;;;12.30;99.90;;;;;;5092477;28;20180;-57
2023/05/18 03:59:46;;;;;;;14.40;6.07;;;12.30;99.90;;;;;;5092402;28;20168;-58
2023/05/18 04:02:15;;;;;;;10.88;6.30;;;12.30;99.90;;;;;;5092478;28;20168;-58
2023/05/18 04:04:41;;;;;;;14.30;6.27;;;12.40;99.90;;;;;;5092433;28;20228;-58
2023/05/18 04:07:09;;;;;;;12.77;5.85;;;12.30;99.90;;;;;;5092237;28;20251;-58
2023/05/18 04:09:35;;;;;;;14.80;7.03;;;12.30;99.90;;;;;;5092164;28;20168;-58
2023/05/18 04:12:02;;;;;;;11.50;5.93;;;12.30;99.90;;;;;;5092283;28;20178;-58
2023/05/18 04:14:27;;;;;;;15.50;7.15;;;12.30;99.90;;;;;;5092076;28;20208;-58
2023/05/18 04:16:55;;;;;;;16.05;7.05;;;12.40;99.90;;;;;;5092228;28;20179;-58
2023/05/18 04:19:21;;;;;;;12.63;6.60;;;12.10;99.90;;;;;;5092127;28;20251;-58
2023/05/18 04:21:47;;;;;;;14.07;6.77;;;12.40;99.90;;;;;;5077051;28;20674;-58
2023/05/18 04:24:15;;;;;;;18.37;6.53;;;12.40;99.90;;;;;;5091703;28;20182;-60
2023/05/18 04:26:41;;;;;;;20.08;6.35;;;12.40;99.90;;;;;;5091968;28;20184;-58
2023/05/18 04:29:09;;;;;;;12.27;6.15;;;12.40;99.90;;;;;;5107631;28;20182;-58
2023/05/18 04:31:36;;;;;;;16.95;6.47;;;12.40;99.90;;;;;;5091982;28;20176;-58
2023/05/18 04:34:02;;;;;;;13.98;5.85;;;12.40;99.90;;;;;;5091760;28;20211;-58
2023/05/18 04:36:29;;;;;;;20.63;6.88;;;12.40;99.90;;;;;;5091692;28;20212;-59
2023/05/18 04:38:58;;;;;;;14.85;6.85;;;12.50;99.90;;;;;;5091745;28;20259;-58
2023/05/18 04:41:24;;;;;;;19.95;6.85;;;12.40;99.90;;;;;;5073585;28;20535;-59
2023/05/18 04:43:52;;;;;;;16.80;6.70;;;12.40;99.90;;;;;;5073414;28;20168;-59
2023/05/18 04:46:17;;;;;;;19.05;6.28;;;12.40;99.90;;;;;;5073356;28;20297;-58
2023/05/18 04:48:43;;;;;;;19.88;6.60;;;12.40;99.90;;;;;;5091426;28;20353;-59
2023/05/18 04:51:09;;;;;;;13.83;6.90;;;12.50;99.90;;;;;;5091458;28;20659;-58
2023/05/18 04:53:37;;;;;;;19.75;6.82;;;12.50;99.90;;;;;;5091621;28;20630;-58
2023/05/18 04:56:03;;;;;;;13.43;6.57;;;12.50;99.90;;;;;;5091046;28;20186;-58
2023/05/18 04:58:29;;;;;;;19.38;7.10;;;;;;;;;;5091596;28;20643;-58
2023/05/18 05:00:55;;;;;;;14.13;7.00;;;12.50;99.90;;;;;;5091452;28;20164;-58
2023/05/18 05:03:21;;;;;;;15.93;6.37;;;12.60;99.90;;;;;;5091129;28;20170;-59
2023/05/18 05:05:47;;;;;;;15.48;7.07;;;12.50;99.90;;;;;;5091201;28;20184;-58
2023/05/18 05:08:13;;;;;;;15.15;7.13;;;12.50;99.90;;;;;;5091302;28;20184;-58
2023/05/18 05:10:39;;;;;;;15.95;7.22;;;12.40;99.90;;;;;;5091287;28;20176;-58
2023/05/18 05:13:05;;;;;;;14.88;6.78;;;;;;;;;;5091100;28;20202;-58
2023/05/18 05:15:30;;;;;;;13.63;6.88;;;12.40;99.90;;;;;;5091260;28;20187;-58
2023/05/18 05:17:57;;;;;;;14.80;6.03;;;12.30;99.90;;;;;;5090901;28;20263;-59
2023/05/18 05:20:22;;;;;;;17.23;7.22;;;12.40;99.90;;;;;;5090936;28;20199;-58
2023/05/18 05:22:48;;;;;;;15.93;7.55;;;12.50;99.90;;;;;;5091080;28;20624;-58
2023/05/18 05:25:14;;;;;;;16.27;7.35;;;12.40;99.90;;;;;;5091293;28;20261;-59
2023/05/18 05:27:40;;;;;;;14.30;7.28;;;12.50;99.90;;;;;;5091048;28;20635;-58
2023/05/18 05:30:06;;;;;;;16.75;7.78;;;12.50;99.90;;;;;;5091019;28;20180;-59
2023/05/18 05:32:32;;;;;;;12.50;7.35;;;12.60;99.90;;;;;;5090809;28;20221;-59
2023/05/18 05:34:57;;;;;;;15.32;7.25;;;12.70;99.90;;;;;;5090936;28;20176;-59
2023/05/18 05:37:23;;;;;;;19.42;6.75;;;12.80;99.90;;;;;;5090788;28;20247;-59
2023/05/18 05:39:48;;;;;;;20.10;7.05;;;12.90;99.90;;;;;;5090725;28;20250;-58
2023/05/18 05:42:15;;;;;;;17.88;7.65;;;13.10;99.90;;;;;;5091016;28;20729;-58
2023/05/18 05:44:40;;;;;;;13.98;7.22;;;13.10;99.90;;;;;;5090880;28;20213;-59
2023/05/18 05:47:07;;;;;;;17.95;7.28;;;13.10;99.90;;;;;;5090790;28;20180;-59
2023/05/18 05:49:33;;;;;;;19.48;7.38;;;13.10;99.90;;;;;;5090953;28;20644;-58
2023/05/18 05:51:59;;;;;;;12.48;6.78;;;13.20;99.90;;;;;;5090947;28;20168;-58
2023/05/18 05:54:24;;;;;;;17.08;6.78;;;13.20;99.90;;;;;;5090736;28;20211;-59
2023/05/18 05:56:50;;;;;;;16.85;7.22;;;13.10;99.90;;;;;;5090692;28;20233;-58
2023/05/18 05:59:16;;;;;;;14.50;7.00;;;13.20;99.90;;;;;;5090234;28;20182;-59
2023/05/18 06:01:41;;;;;;;18.20;7.22;;;13.10;99.90;;;;;;5082764;28;20167;-60
2023/05/18 06:04:09;;;;;;;17.20;7.20;;;13.20;99.90;;;;;;5081938;28;20706;-59
2023/05/18 06:06:37;;;;;;;16.60;7.30;;;13.20;99.90;;;;;;5085688;28;20208;-59
2023/05/18 06:09:06;;;;;;;14.32;7.57;;;13.20;99.90;;;;;;5087189;28;20206;-59
2023/05/18 06:11:31;;;;;;;19.08;7.57;;;13.20;99.90;;;;;;5082606;28;20199;-59
2023/05/18 06:13:57;;;;;;;25.25;7.80;;;13.30;99.90;;;;;;5084782;28;20247;-60
2023/05/18 06:16:24;;;;;;;15.93;7.78;;;13.40;99.90;;;;;;5087351;28;20184;-60
2023/05/18 06:18:50;;;;;;;21.08;7.95;;;13.60;99.90;;;;;;5094320;28;20262;-60
2023/05/18 06:21:15;;;;;;;31.55;8.73;;;14.00;99.90;;;;;;5091919;28;20184;-61
2023/05/18 06:23:43;;;;;;;24.52;8.40;;;13.80;99.90;;;;;;5075464;28;20334;-59
2023/05/18 06:26:09;;;;;;;23.17;8.10;;;14.00;99.90;;;;;;5092126;28;20265;-59
2023/05/18 06:28:34;;;;;;;28.35;8.20;;;14.00;99.90;;;;;;5093800;28;20211;-61
2023/05/18 06:31:01;;;;;;;25.95;8.98;;;;;;;;;;5091838;28;20180;-60
2023/05/18 06:33:27;;;;;;;24.55;8.57;;;14.30;99.90;;;;;;5091109;28;20258;-63
2023/05/18 06:35:53;;;;;;;19.35;8.05;;;14.30;99.90;;;;;;5080392;28;20433;-64
2023/05/18 06:38:18;;;;;;;24.58;9.02;;;14.50;99.90;;;;;;5075777;28;20271;-60
2023/05/18 06:40:44;;;;;;;20.80;8.65;;;;;;;;;;5079321;28;20175;-61
2023/05/18 06:43:10;;;;;;;22.23;8.38;;;14.70;99.90;;;;;;5093513;28;20264;-62
2023/05/18 06:45:36;;;;;;;22.75;8.05;;;14.80;99.90;;;;;;5093701;28;20660;-61
2023/05/18 06:48:01;;;;;;;21.48;10.05;;;14.80;99.90;;;;;;5093118;28;20184;-63
2023/05/18 06:50:27;;;;;;;26.38;9.48;;;14.90;99.90;;;;;;5093408;28;20648;-61
2023/05/18 06:52:53;;;;;;;19.30;9.52;;;15.00;99.90;;;;;;5093387;28;20180;-61
2023/05/18 06:55:18;;;;;;;28.42;9.45;;;15.00;99.90;;;;;;5093390;28;20647;-62
2023/05/18 06:57:44;;;;;;;26.67;10.20;;;15.20;99.90;;;;;;5075183;28;20184;-63
2023/05/18 07:00:11;;;;;;;22.60;9.50;;;15.20;99.90;;;;;;5090237;28;20184;-63
2023/05/18 07:02:38;;;;;;;27.35;9.70;;;15.30;99.90;;;;;;5093087;28;20211;-63
2023/05/18 07:05:07;;;;;;;23.13;9.80;;;15.40;99.90;;;;;;5093272;28;20167;-59
2023/05/18 07:07:34;;;;;;;20.98;9.57;;;15.50;99.90;;;;;;5086715;28;20187;-60
2023/05/18 07:09:59;;;;;;;20.70;9.15;;;15.50;99.90;;;;;;5093194;28;20172;-60
2023/05/18 07:12:26;;;;;;;18.10;9.48;;;15.60;99.90;;;;;;5074421;28;20658;-64
2023/05/18 07:14:51;;;;;;;24.13;8.95;;;15.80;99.90;;;;;;5092906;28;20223;-59
2023/05/18 07:17:17;;;;;;;19.35;9.50;;;15.70;99.90;;;;;;5090141;28;20668;-60
2023/05/18 07:19:43;;;;;;;21.52;9.77;;;15.80;99.90;;;;;;5080300;28;20191;-61
2023/05/18 07:22:09;;;;;;;23.27;9.80;;;15.90;99.90;;;;;;5093249;28;20168;-61
2023/05/18 07:24:34;;;;;;;20.67;9.23;;;16.00;99.90;;;;;;5092897;28;20679;-65
2023/05/18 07:27:00;;;;;;;19.02;9.70;;;16.10;99.90;;;;;;5092988;28;20179;-65
2023/05/18 07:29:26;;;;;;;28.20;10.35;;;16.20;99.90;;;;;;5090211;28;20172;-64
2023/05/18 07:31:51;;;;;;;23.77;10.80;;;16.20;99.90;;;;;;5090219;28;20172;-65
2023/05/18 07:34:17;;;;;;;19.20;9.88;;;16.40;99.90;;;;;;5092723;28;20223;-65
2023/05/18 07:36:42;;;;;;;32.75;11.10;;;16.40;99.90;;;;;;5092637;28;20223;-64
2023/05/18 07:39:16;;;;;;;23.65;10.43;;;16.50;99.90;;;;;;5092492;28;20185;-64
2023/05/18 07:41:41;;;;;;;22.42;10.10;;;16.90;99.90;;;;;;5089709;28;20179;-65
2023/05/18 07:44:07;;;;;;;20.75;10.63;;;16.90;99.90;;;;;;5087049;28;20609;-64
2023/05/18 07:46:33;;;;;;;28.20;10.23;;;17.00;99.90;;;;;;5092313;28;20545;-64
2023/05/18 07:48:59;;;;;;;24.83;9.93;;;17.10;99.90;;;;;;5089051;28;20176;-64
2023/05/18 07:51:25;;;;;;;31.70;11.20;;;17.10;99.90;;;;;;5079447;28;20691;-66
2023/05/18 07:53:50;;;;;;;26.27;10.32;;;17.10;99.90;;;;;;5089902;28;20299;-65
2023/05/18 07:56:16;;;;;;;20.20;10.00;;;17.10;99.90;;;;;;5073591;28;20192;-65
2023/05/18 07:58:43;;;;;;;26.92;10.55;;;17.10;99.90;;;;;;5072133;28;20196;-64
2023/05/18 08:01:09;;;;;;;32.70;11.80;;;17.20;99.90;;;;;;5081744;28;20172;-64
2023/05/18 08:03:34;;;;;;;24.98;10.75;;;17.40;99.90;;;;;;5087064;28;20180;-65
2023/05/18 08:06:00;;;;;;;20.73;10.05;;;17.50;99.90;;;;;;5089159;28;20661;-66
2023/05/18 08:08:26;;;;;;;20.73;10.00;;;17.60;99.90;;;;;;5072022;28;20184;-64
2023/05/18 08:10:52;;;;;;;23.83;9.80;;;17.70;99.90;;;;;;5071878;28;20641;-63
2023/05/18 08:13:18;;;;;;;24.05;9.25;;;17.90;99.90;;;;;;5071954;28;20212;-64
2023/05/18 08:15:43;;;;;;;21.42;8.95;;;18.00;99.90;;;;;;5071845;28;20173;-64
2023/05/18 08:18:09;;;;;;;26.40;9.15;;;18.10;99.90;;;;;;5072060;28;20228;-64
2023/05/18 08:20:34;;;;;;;20.27;8.65;;;18.30;99.90;;;;;;5071485;28;20637;-64
2023/05/18 08:23:00;;;;;;;23.90;8.60;;;18.40;99.90;;;;;;5075745;28;20176;-64
2023/05/18 08:25:26;;;;;;;18.95;8.43;;;18.70;99.90;;;;;;5073100;28;20538;-64
2023/05/18 08:27:52;;;;;;;18.90;7.95;;;19.00;99.90;;;;;;5091772;28;20705;-64
2023/05/18 08:30:20;;;;;;;20.65;8.35;;;19.20;99.90;;;;;;5091244;28;20178;-64
2023/05/18 08:32:46;;;;;;;14.07;6.88;;;19.30;99.90;;;;;;5091208;28;20247;-64
2023/05/18 08:35:12;;;;;;;15.40;6.57;;;19.20;99.90;;;;;;5091542;28;20196;-65
2023/05/18 08:37:38;;;;;;;16.13;6.35;;;19.60;82.00;;;;;;5091671;28;20203;-65
2023/05/18 08:40:06;;;;;;;18.77;7.30;;;19.80;1.00;;;;;;5092014;28;20174;-65
2023/05/18 08:42:39;;;;;;;18.42;7.55;;;19.90;1.00;;;;;;5091669;28;20620;-65
2023/05/18 08:45:27;;;;;;;16.90;7.35;;;19.70;99.90;;;;;;5091618;28;20172;-65
2023/05/18 08:47:56;;;;;;;20.30;7.72;;;20.30;99.90;;;;;;5091399;28;20539;-65
2023/05/18 08:50:23;;;;;;;18.10;6.57;;;20.90;1.00;;;;;;5091369;28;20500;-65
2023/05/18 08:52:54;;;;;;;13.60;5.50;;;20.90;1.00;;;;;;5091305;28;20164;-65
2023/05/18 08:55:21;;;;;;;12.10;5.88;;;21.00;1.00;;;;;;5091281;28;20176;-65
2023/05/18 08:57:54;;;;;;;16.65;5.93;;;21.20;99.90;;;;;;5091369;28;20172;-65
2023/05/18 09:00:21;;;;;;;17.83;6.03;;;21.50;1.00;;;;;;5091315;28;20659;-64
2023/05/18 09:02:47;;;;;;;14.02;5.60;;;21.40;1.00;;;;;;5091346;28;20230;-64
2023/05/18 09:05:14;;;;;;;12.13;5.28;;;21.70;1.00;;;;;;5091181;28;20168;-65
2023/05/18 09:07:41;;;;;;;12.65;5.22;;;22.20;1.00;;;;;;5091256;28;20254;-65
2023/05/18 09:10:09;;;;;;;11.18;4.70;;;22.40;40.70;;;;;;5091151;28;20250;-65
2023/05/18 09:12:35;;;;;;;12.00;5.13;;;22.60;1.00;;;;;;5072873;28;20580;-65
2023/05/18 09:15:02;;;;;;;15.15;5.13;;;22.50;99.90;;;;;;5091030;28;20215;-65
2023/05/18 09:17:28;;;;;;;13.02;5.38;;;;;;;;;;5090880;28;20226;-65
2023/05/18 09:19:54;;;;;;;9.55;4.43;;;22.10;1.00;;;;;;5091133;28;20259;-64
2023/05/18 09:22:20;;;;;;;11.32;4.30;;;22.40;1.00;;;;;;5091026;28;20172;-65
2023/05/18 09:24:47;;;;;;;12.38;4.10;;;22.10;99.90;;;;;;5090835;28;20306;-65
2023/05/18 09:27:13;;;;;;;9.35;4.18;;;22.30;99.90;;;;;;5090839;28;20277;-64
2023/05/18 09:29:54;;;;;;;11.98;4.70;;;22.10;1.00;;;;;;5091440;28;20236;-66
2023/05/18 09:32:21;;;;;;;16.50;6.85;;;21.70;21.10;;;;;;5090948;28;20183;-65
2023/05/18 09:34:47;;;;;;;17.50;7.93;;;22.20;1.00;;;;;;5090871;28;20232;-63
2023/05/18 09:37:17;;;;;;;17.63;7.35;;;22.20;63.90;;;;;;5090592;28;20231;-64
2023/05/18 09:39:44;;;;;;;16.55;7.75;;;21.70;99.90;;;;;;5090979;28;20187;-63
2023/05/18 09:42:11;;;;;;;21.73;7.75;;;22.00;99.90;;;;;;5092272;28;20172;-64
2023/05/18 09:44:36;;;;;;;19.90;7.13;;;21.70;99.90;;;;;;5094900;28;20176;-64
2023/05/18 09:47:07;;;;;;;17.15;7.07;;;21.90;1.00;;;;;;5095204;28;20549;-65
2023/05/18 09:49:32;;;;;;;19.02;7.78;;;22.00;1.00;;;;;;5095095;28;20184;-64
2023/05/18 09:52:01;;;;;;;19.00;6.70;;;22.30;1.00;;;;;;5094859;28;20237;-63
2023/05/18 09:54:27;;;;;;;19.20;7.05;;;;;;;;;;5094746;28;20207;-64
2023/05/18 09:56:53;;;;;;;16.65;6.50;;;22.00;26.70;;;;;;5094589;28;20172;-64
2023/05/18 09:59:18;;;;;;;17.88;6.13;;;22.10;1.00;;;;;;5094722;28;20698;-64
2023/05/18 10:01:59;;;;;;;21.73;5.82;;;22.70;3.00;;;;;;5094742;28;20203;-65
2023/05/18 10:04:41;;;;;;;19.60;5.90;;;22.50;1.00;;;;;;5094788;28;20180;-63
2023/05/18 10:07:11;;;;;;;17.40;5.65;;;21.70;1.00;;;;;;5082276;28;20200;-65
2023/05/18 10:09:39;;;;;;;15.02;5.68;;;21.80;1.00;;;;;;5074302;28;20180;-65
2023/05/18 10:12:15;;;;;;;16.55;5.53;;;22.10;88.30;;;;;;5074562;28;20246;-65
2023/05/18 10:14:43;;;;;;;16.42;5.82;;;22.60;11.30;;;;;;5074201;28;20576;-64
2023/05/18 10:17:13;;;;;;;11.82;5.45;;;22.80;1.00;;;;;;5074169;28;20256;-64
2023/05/18 10:19:41;;;;;;;17.23;5.85;;;22.80;1.00;;;;;;5074132;28;20184;-64
2023/05/18 10:22:07;;;;;;;13.82;5.30;;;22.40;1.00;;;;;;5074018;28;20187;-65
2023/05/18 10:24:38;;;;;;;11.70;5.28;;;22.30;1.00;;;;;;5073841;28;20169;-65
2023/05/18 10:27:08;;;;;;;20.83;5.38;;;23.00;1.00;;;;;;5073945;28;20157;-64
2023/05/18 10:29:36;;;;;;;22.13;5.90;;;23.60;1.00;;;;;;5073860;28;20169;-65
2023/05/18 10:32:03;;;;;;;15.52;5.43;;;23.80;1.00;;;;;;5073925;28;20172;-65
2023/05/18 10:34:31;;;;;;;32.13;5.75;;;24.30;99.90;;;;;;5074077;28;20288;-65
2023/05/18 10:36:58;;;;;;;11.00;5.30;;;24.20;99.90;;;;;;5073350;28;20228;-65
2023/05/18 10:39:25;;;;;;;14.90;5.57;;;24.30;99.90;;;;;;5073600;28;20637;-65
2023/05/18 10:41:54;;;;;;;11.52;4.72;;;23.90;99.90;;;;;;5073631;28;20202;-65
2023/05/18 10:44:22;;;;;;;17.40;5.63;;;24.40;99.90;;;;;;5073800;28;20199;-65
2023/05/18 10:46:49;;;;;;;12.40;5.60;;;23.70;1.00;;;;;;5073503;28;20322;-65
2023/05/18 10:49:16;;;;;;;16.58;5.40;;;23.60;56.70;;;;;;5073490;28;20172;-63
2023/05/18 10:51:45;;;;;;;11.15;5.45;;;23.80;1.00;;;;;;5073530;28;20629;-63
2023/05/18 10:54:12;;;;;;;10.98;5.63;;;23.70;99.90;;;;;;5072567;28;20699;-64
2023/05/18 10:56:42;;;;;;;11.50;5.53;;;24.30;1.00;;;;;;5073458;28;20161;-64
2023/05/18 10:59:09;;;;;;;18.20;5.90;;;24.20;1.00;;;;;;5073299;28;20191;-64
2023/05/18 11:01:37;;;;;;;18.30;5.90;;;23.20;1.00;;;;;;5073130;28;20165;-64
2023/05/18 11:04:04;;;;;;;15.10;6.03;;;23.30;1.00;;;;;;5054947;28;20176;-64
2023/05/18 11:06:32;;;;;;;19.40;5.93;;;22.80;1.00;;;;;;5061924;28;20171;-65
2023/05/18 11:08:58;;;;;;;11.55;5.60;;;22.90;1.00;;;;;;5093346;28;20164;-64
2023/05/18 11:11:27;;;;;;;13.05;5.93;;;23.30;1.00;;;;;;5093153;28;20467;-64
2023/05/18 11:13:52;;;;;;;13.68;6.75;;;23.50;1.00;;;;;;5093179;28;20703;-65
2023/05/18 11:16:19;;;;;;;14.25;6.82;;;23.90;1.00;;;;;;5093176;28;20196;-65
2023/05/18 11:18:48;;;;;;;20.48;6.00;;;23.90;1.00;;;;;;5093244;28;20175;-65
2023/05/18 11:21:48;;;;;;;17.33;6.53;;;24.00;1.00;;;;;;5093192;28;20176;-65
2023/05/18 11:24:16;;;;;;;16.20;6.25;;;24.50;1.00;;;;;;5092898;28;20353;-63
2023/05/18 11:26:50;;;;;;;56.03;8.13;;;24.40;1.00;;;;;;5092877;28;20636;-64
2023/05/18 11:29:28;;;;;;;29.85;7.35;;;23.60;99.90;;;;;;5092840;28;20176;-64
2023/05/18 11:31:54;;;;;;;14.63;6.68;;;22.90;99.90;;;;;;5092971;28;20640;-64
2023/05/18 11:34:45;;;;;;;22.45;6.55;;;23.30;1.00;;;;;;5093015;28;20208;-64
2023/05/18 11:37:15;;;;;;;18.38;6.47;;;23.80;1.00;;;;;;5092897;28;20711;-64
2023/05/18 11:39:51;;;;;;;15.02;6.63;;;24.60;1.00;;;;;;5092760;28;20535;-64
2023/05/18 11:42:17;;;;;;;19.00;7.28;;;25.20;1.00;;;;;;5092726;28;20258;-64
2023/05/18 11:44:52;;;;;;;12.80;6.20;;;25.60;1.00;;;;;;5092610;28;20250;-64
2023/05/18 11:47:17;;;;;;;16.77;6.60;;;25.60;99.90;;;;;;5092380;28;20163;-64
2023/05/18 11:49:45;;;;;;;15.85;6.75;;;26.40;1.00;;;;;;5092313;28;20217;-64
2023/05/18 11:52:11;;;;;;;11.98;6.22;;;26.10;99.90;;;;;;5092545;28;20199;-64
2023/05/18 11:54:51;;;;;;;13.70;6.32;;;25.80;99.90;;;;;;5092505;28;20254;-64
2023/05/18 11:57:18;;;;;;;16.75;6.65;;;25.70;99.90;;;;;;5092453;28;20597;-65
2023/05/18 11:59:53;;;;;;;15.50;6.20;;;25.60;99.90;;;;;;5092449;28;20636;-64
2023/05/18 12:02:29;;;;;;;14.00;6.75;;;25.40;99.90;;;;;;5092093;28;20182;-64
2023/05/18 12:04:58;;;;;;;11.63;6.70;;;26.00;99.90;;;;;;5091872;28;20175;-64
2023/05/18 12:07:25;;;;;;;13.55;6.40;;;25.60;9.10;;;;;;5076953;28;20168;-64
2023/05/18 12:09:51;;;;;;;11.80;5.50;;;26.30;33.60;;;;;;5072026;28;20176;-64
2023/05/18 12:12:18;;;;;;;12.52;5.53;;;26.70;99.90;;;;;;5071736;28;20667;-64
2023/05/18 12:14:54;;;;;;;16.65;5.97;;;26.90;29.70;;;;;;5071741;28;20218;-64
2023/05/18 12:17:21;;;;;;;11.88;5.57;;;;;;;;;;5071847;28;20192;-64
2023/05/18 12:19:48;;;;;;;12.65;5.50;;;27.50;1.00;;;;;;5071821;28;20168;-64
2023/05/18 12:22:15;;;;;;;9.57;5.50;;;27.50;1.00;;;;;;5071512;28;20172;-64
2023/05/18 12:24:42;;;;;;;11.02;5.13;;;26.80;1.00;;;;;;5071588;28;20176;-63
2023/05/18 12:27:10;;;;;;;12.60;4.57;;;26.60;1.00;;;;;;5071616;28;20164;-63
2023/05/18 12:29:40;;;;;;;13.43;5.03;;;26.60;1.00;;;;;;5074116;28;20172;-64
2023/05/18 12:32:11;;;;;;;10.45;4.50;;;26.20;1.00;;;;;;5085304;28;20647;-64
2023/05/18 12:34:37;;;;;;;10.98;4.32;;;;;;;;;;5091586;28;20582;-64
2023/05/18 12:37:04;;;;;;;11.43;4.22;;;25.80;1.00;;;;;;5074376;28;20220;-64
2023/05/18 12:39:30;;;;;;;9.38;4.10;;;26.00;1.00;;;;;;5071313;28;20180;-64
2023/05/18 12:42:13;;;;;;;13.20;4.20;;;25.90;1.00;;;;;;5071292;28;20516;-65
2023/05/18 12:44:42;;;;;;;9.40;4.07;;;26.80;1.00;;;;;;5071220;28;20191;-65